Terminal Aerodrome Forecast
Issued by NWS

Home | Current Version | Previous Version | Text Only | Print | Product List | Glossary Off
Versions: 1 2 3 4 5 6 7 8 9 10 11 12 13 14 15 16 17 18 19 20 21 22 23 24 25 26 27 28 29 30 31 32

110
FTUS43 KLOT 271729
TAFMDW
TAF
KMDW 271729Z 2718/2818 06015G20KT P6SM OVC015
     FM272000 06015G20KT P6SM BKN025 OVC250
     FM272300 06016G23KT 6SM -SHRA SCT025 OVC035
     FM280200 07015KT 6SM -SHRA OVC035
     FM280900 07015KT P6SM VCSH SCT009 OVC012
     FM281600 06016G23KT P6SM VCSH OVC018=

USA.gov is the U.S. government's official web portal to all federal, state and local government web resources and services.